sensor_id;sensor_type;location;lat;lon;timestamp;temperature;humidity
45807;DHT22;31507;51.494;7.518;2023-04-25T00:00:45;5.10;99.90
45807;DHT22;31507;51.494;7.518;2023-04-25T00:03:11;5.20;99.90
45807;DHT22;31507;51.494;7.518;2023-04-25T00:05:37;5.20;99.90
45807;DHT22;31507;51.494;7.518;2023-04-25T00:08:03;5.30;99.90
45807;DHT22;31507;51.494;7.518;2023-04-25T00:10:29;5.30;99.90
45807;DHT22;31507;51.494;7.518;2023-04-25T00:12:55;5.40;99.90
45807;DHT22;31507;51.494;7.518;2023-04-25T00:15:20;5.40;99.90
45807;DHT22;31507;51.494;7.518;2023-04-25T00:17:47;5.50;99.90
45807;DHT22;31507;51.494;7.518;2023-04-25T00:20:13;5.60;99.90
45807;DHT22;31507;51.494;7.518;2023-04-25T00:22:38;5.60;99.90
45807;DHT22;31507;51.494;7.518;2023-04-25T00:25:05;5.60;99.90
45807;DHT22;31507;51.494;7.518;2023-04-25T00:27:31;5.60;99.90
45807;DHT22;31507;51.494;7.518;2023-04-25T00:29:57;5.60;99.90
45807;DHT22;31507;51.494;7.518;2023-04-25T00:32:23;5.70;99.90
45807;DHT22;31507;51.494;7.518;2023-04-25T00:34:48;5.70;99.90
45807;DHT22;31507;51.494;7.518;2023-04-25T00:37:14;5.70;99.90
45807;DHT22;31507;51.494;7.518;2023-04-25T00:39:40;5.70;99.90
45807;DHT22;31507;51.494;7.518;2023-04-25T00:42:05;5.70;99.90
45807;DHT22;31507;51.494;7.518;2023-04-25T00:44:31;5.70;99.90
45807;DHT22;31507;51.494;7.518;2023-04-25T00:46:57;5.70;99.90
45807;DHT22;31507;51.494;7.518;2023-04-25T00:49:23;5.70;99.90
45807;DHT22;31507;51.494;7.518;2023-04-25T00:51:49;5.70;99.90
45807;DHT22;31507;51.494;7.518;2023-04-25T00:54:16;5.80;99.90
45807;DHT22;31507;51.494;7.518;2023-04-25T00:56:41;5.80;99.90
45807;DHT22;31507;51.494;7.518;2023-04-25T00:59:09;5.80;99.90
45807;DHT22;31507;51.494;7.518;2023-04-25T01:01:35;5.80;99.90
45807;DHT22;31507;51.494;7.518;2023-04-25T01:04:01;5.80;99.90
45807;DHT22;31507;51.494;7.518;2023-04-25T01:06:27;5.80;99.90
45807;DHT22;31507;51.494;7.518;2023-04-25T01:08:53;5.80;99.90
45807;DHT22;31507;51.494;7.518;2023-04-25T01:11:19;5.80;99.90
45807;DHT22;31507;51.494;7.518;2023-04-25T01:13:45;5.80;99.90
45807;DHT22;31507;51.494;7.518;2023-04-25T01:16:10;5.80;99.90
45807;DHT22;31507;51.494;7.518;2023-04-25T01:18:40;5.80;99.90
45807;DHT22;31507;51.494;7.518;2023-04-25T01:21:10;5.80;99.90
45807;DHT22;31507;51.494;7.518;2023-04-25T01:23:37;5.80;99.90
45807;DHT22;31507;51.494;7.518;2023-04-25T01:26:03;5.80;99.90
45807;DHT22;31507;51.494;7.518;2023-04-25T01:28:29;5.80;99.90
45807;DHT22;31507;51.494;7.518;2023-04-25T01:30:57;5.80;99.90
45807;DHT22;31507;51.494;7.518;2023-04-25T01:33:22;5.80;99.90
45807;DHT22;31507;51.494;7.518;2023-04-25T01:35:48;5.80;99.90
45807;DHT22;31507;51.494;7.518;2023-04-25T01:38:14;5.80;99.90
45807;DHT22;31507;51.494;7.518;2023-04-25T01:40:40;5.80;99.90
45807;DHT22;31507;51.494;7.518;2023-04-25T01:43:07;5.70;99.90
45807;DHT22;31507;51.494;7.518;2023-04-25T01:45:33;5.70;99.90
45807;DHT22;31507;51.494;7.518;2023-04-25T01:48:01;5.70;99.90
45807;DHT22;31507;51.494;7.518;2023-04-25T01:50:27;5.60;99.90
45807;DHT22;31507;51.494;7.518;2023-04-25T01:52:53;5.60;99.90
45807;DHT22;31507;51.494;7.518;2023-04-25T01:55:19;5.60;99.90
45807;DHT22;31507;51.494;7.518;2023-04-25T01:57:45;5.60;99.90
45807;DHT22;31507;51.494;7.518;2023-04-25T02:00:11;5.50;99.90
45807;DHT22;31507;51.494;7.518;2023-04-25T02:02:37;5.50;99.90
45807;DHT22;31507;51.494;7.518;2023-04-25T02:05:03;5.50;99.90
45807;DHT22;31507;51.494;7.518;2023-04-25T02:07:28;5.40;99.90
45807;DHT22;31507;51.494;7.518;2023-04-25T02:09:54;5.30;99.90
45807;DHT22;31507;51.494;7.518;2023-04-25T02:12:19;5.30;99.90
45807;DHT22;31507;51.494;7.518;2023-04-25T02:14:45;5.30;99.90
45807;DHT22;31507;51.494;7.518;2023-04-25T02:17:11;5.30;99.90
45807;DHT22;31507;51.494;7.518;2023-04-25T02:19:41;5.20;99.90
45807;DHT22;31507;51.494;7.518;2023-04-25T02:22:06;5.20;99.90
45807;DHT22;31507;51.494;7.518;2023-04-25T02:24:32;5.20;99.90
45807;DHT22;31507;51.494;7.518;2023-04-25T02:26:59;5.30;99.90
45807;DHT22;31507;51.494;7.518;2023-04-25T02:29:24;5.20;99.90
45807;DHT22;31507;51.494;7.518;2023-04-25T02:31:50;5.30;99.90
45807;DHT22;31507;51.494;7.518;2023-04-25T02:34:16;5.30;99.90
45807;DHT22;31507;51.494;7.518;2023-04-25T02:36:41;5.30;99.90
45807;DHT22;31507;51.494;7.518;2023-04-25T02:39:07;5.30;99.90
45807;DHT22;31507;51.494;7.518;2023-04-25T02:41:32;5.30;99.90
45807;DHT22;31507;51.494;7.518;2023-04-25T02:43:58;5.30;99.90
45807;DHT22;31507;51.494;7.518;2023-04-25T02:46:24;5.30;99.90
45807;DHT22;31507;51.494;7.518;2023-04-25T02:48:49;5.40;99.90
45807;DHT22;31507;51.494;7.518;2023-04-25T02:51:15;5.30;99.90
45807;DHT22;31507;51.494;7.518;2023-04-25T02:53:42;5.30;99.90
45807;DHT22;31507;51.494;7.518;2023-04-25T02:56:07;5.40;99.90
45807;DHT22;31507;51.494;7.518;2023-04-25T02:58:33;5.40;99.90
45807;DHT22;31507;51.494;7.518;2023-04-25T03:00:59;5.40;99.90
45807;DHT22;31507;51.494;7.518;2023-04-25T03:03:24;5.40;99.90
45807;DHT22;31507;51.494;7.518;2023-04-25T03:05:50;5.30;99.90
45807;DHT22;31507;51.494;7.518;2023-04-25T03:08:19;5.30;99.90
45807;DHT22;31507;51.494;7.518;2023-04-25T03:10:45;5.40;99.90
45807;DHT22;31507;51.494;7.518;2023-04-25T03:13:11;5.30;99.90
45807;DHT22;31507;51.494;7.518;2023-04-25T03:15:38;5.40;99.90
45807;DHT22;31507;51.494;7.518;2023-04-25T03:18:04;5.40;99.90
45807;DHT22;31507;51.494;7.518;2023-04-25T03:20:29;5.40;99.90
45807;DHT22;31507;51.494;7.518;2023-04-25T03:22:55;5.40;99.90
45807;DHT22;31507;51.494;7.518;2023-04-25T03:25:21;5.40;99.90
45807;DHT22;31507;51.494;7.518;2023-04-25T03:27:47;5.40;99.90
45807;DHT22;31507;51.494;7.518;2023-04-25T03:30:12;5.30;99.90
45807;DHT22;31507;51.494;7.518;2023-04-25T03:32:38;5.30;99.90
45807;DHT22;31507;51.494;7.518;2023-04-25T03:35:04;5.30;99.90
45807;DHT22;31507;51.494;7.518;2023-04-25T03:37:30;5.30;99.90
45807;DHT22;31507;51.494;7.518;2023-04-25T03:39:56;5.30;99.90
45807;DHT22;31507;51.494;7.518;2023-04-25T03:42:21;5.30;99.90
45807;DHT22;31507;51.494;7.518;2023-04-25T03:44:49;5.30;99.90
45807;DHT22;31507;51.494;7.518;2023-04-25T03:47:15;5.30;99.90
45807;DHT22;31507;51.494;7.518;2023-04-25T03:49:41;5.30;99.90
45807;DHT22;31507;51.494;7.518;2023-04-25T03:52:07;5.20;99.90
45807;DHT22;31507;51.494;7.518;2023-04-25T03:54:33;5.20;99.90
45807;DHT22;31507;51.494;7.518;2023-04-25T03:56:58;5.20;99.90
45807;DHT22;31507;51.494;7.518;2023-04-25T03:59:24;5.20;99.90
45807;DHT22;31507;51.494;7.518;2023-04-25T04:01:51;5.20;99.90
45807;DHT22;31507;51.494;7.518;2023-04-25T04:04:17;5.20;99.90
45807;DHT22;31507;51.494;7.518;2023-04-25T04:06:43;5.20;99.90
45807;DHT22;31507;51.494;7.518;2023-04-25T04:09:09;5.20;99.90
45807;DHT22;31507;51.494;7.518;2023-04-25T04:11:37;5.20;99.90
45807;DHT22;31507;51.494;7.518;2023-04-25T04:14:06;5.20;99.90
45807;DHT22;31507;51.494;7.518;2023-04-25T04:16:32;5.20;99.90
45807;DHT22;31507;51.494;7.518;2023-04-25T04:18:58;5.20;99.90
45807;DHT22;31507;51.494;7.518;2023-04-25T04:21:23;5.20;99.90
45807;DHT22;31507;51.494;7.518;2023-04-25T04:23:49;5.20;99.90
45807;DHT22;31507;51.494;7.518;2023-04-25T04:26:15;5.20;99.90
45807;DHT22;31507;51.494;7.518;2023-04-25T04:28:42;5.20;99.90
45807;DHT22;31507;51.494;7.518;2023-04-25T04:31:09;5.10;99.90
45807;DHT22;31507;51.494;7.518;2023-04-25T04:33:35;4.80;99.90
45807;DHT22;31507;51.494;7.518;2023-04-25T04:36:02;4.70;99.90
45807;DHT22;31507;51.494;7.518;2023-04-25T04:38:28;4.60;99.90
45807;DHT22;31507;51.494;7.518;2023-04-25T04:40:54;4.50;99.90
45807;DHT22;31507;51.494;7.518;2023-04-25T04:43:21;4.50;99.90
45807;DHT22;31507;51.494;7.518;2023-04-25T04:45:48;4.40;99.90
45807;DHT22;31507;51.494;7.518;2023-04-25T04:48:15;4.40;99.90
45807;DHT22;31507;51.494;7.518;2023-04-25T04:50:43;4.40;99.90
45807;DHT22;31507;51.494;7.518;2023-04-25T04:53:10;4.40;99.90
45807;DHT22;31507;51.494;7.518;2023-04-25T04:55:35;4.50;99.90
45807;DHT22;31507;51.494;7.518;2023-04-25T04:58:01;4.50;99.90
45807;DHT22;31507;51.494;7.518;2023-04-25T05:00:27;4.50;99.90
45807;DHT22;31507;51.494;7.518;2023-04-25T05:02:55;4.40;99.90
45807;DHT22;31507;51.494;7.518;2023-04-25T05:05:21;4.50;99.90
45807;DHT22;31507;51.494;7.518;2023-04-25T05:07:46;4.40;99.90
45807;DHT22;31507;51.494;7.518;2023-04-25T05:10:12;4.40;99.90
45807;DHT22;31507;51.494;7.518;2023-04-25T05:12:37;4.40;99.90
45807;DHT22;31507;51.494;7.518;2023-04-25T05:15:03;4.50;99.90
45807;DHT22;31507;51.494;7.518;2023-04-25T05:17:29;4.40;99.90
45807;DHT22;31507;51.494;7.518;2023-04-25T05:19:55;4.40;99.90
45807;DHT22;31507;51.494;7.518;2023-04-25T05:22:20;4.40;99.90
45807;DHT22;31507;51.494;7.518;2023-04-25T05:24:46;4.40;99.90
45807;DHT22;31507;51.494;7.518;2023-04-25T05:27:13;4.40;99.90
45807;DHT22;31507;51.494;7.518;2023-04-25T05:29:39;4.50;99.90
45807;DHT22;31507;51.494;7.518;2023-04-25T05:32:05;4.50;99.90
45807;DHT22;31507;51.494;7.518;2023-04-25T05:34:31;4.50;99.90
45807;DHT22;31507;51.494;7.518;2023-04-25T05:36:56;4.70;99.90
45807;DHT22;31507;51.494;7.518;2023-04-25T05:39:22;4.80;99.90
45807;DHT22;31507;51.494;7.518;2023-04-25T05:41:48;4.90;99.90
45807;DHT22;31507;51.494;7.518;2023-04-25T05:44:13;4.90;99.90
45807;DHT22;31507;51.494;7.518;2023-04-25T05:46:41;4.90;99.90
45807;DHT22;31507;51.494;7.518;2023-04-25T05:49:06;5.00;99.90
45807;DHT22;31507;51.494;7.518;2023-04-25T05:51:32;5.00;99.90
45807;DHT22;31507;51.494;7.518;2023-04-25T05:53:58;5.10;99.90
45807;DHT22;31507;51.494;7.518;2023-04-25T05:56:23;5.10;99.90
45807;DHT22;31507;51.494;7.518;2023-04-25T05:58:49;5.30;99.90
45807;DHT22;31507;51.494;7.518;2023-04-25T06:01:14;5.70;99.90
45807;DHT22;31507;51.494;7.518;2023-04-25T06:03:40;5.80;99.90
45807;DHT22;31507;51.494;7.518;2023-04-25T06:06:08;5.90;99.90
45807;DHT22;31507;51.494;7.518;2023-04-25T06:08:34;5.90;99.90
45807;DHT22;31507;51.494;7.518;2023-04-25T06:11:00;5.90;99.90
45807;DHT22;31507;51.494;7.518;2023-04-25T06:13:26;5.90;99.90
45807;DHT22;31507;51.494;7.518;2023-04-25T06:15:52;6.00;99.90
45807;DHT22;31507;51.494;7.518;2023-04-25T06:18:17;6.10;99.90
45807;DHT22;31507;51.494;7.518;2023-04-25T06:20:43;6.20;99.90
45807;DHT22;31507;51.494;7.518;2023-04-25T06:23:08;6.30;99.90
45807;DHT22;31507;51.494;7.518;2023-04-25T06:25:34;6.40;99.90
45807;DHT22;31507;51.494;7.518;2023-04-25T06:27:59;6.50;99.90
45807;DHT22;31507;51.494;7.518;2023-04-25T06:30:25;6.40;99.90
45807;DHT22;31507;51.494;7.518;2023-04-25T06:32:51;6.60;99.90
45807;DHT22;31507;51.494;7.518;2023-04-25T06:35:18;6.60;99.90
45807;DHT22;31507;51.494;7.518;2023-04-25T06:37:44;6.70;99.90
45807;DHT22;31507;51.494;7.518;2023-04-25T06:40:10;6.60;99.90
45807;DHT22;31507;51.494;7.518;2023-04-25T06:42:36;6.80;99.90
45807;DHT22;31507;51.494;7.518;2023-04-25T06:45:02;6.70;99.90
45807;DHT22;31507;51.494;7.518;2023-04-25T06:47:27;6.90;99.90
45807;DHT22;31507;51.494;7.518;2023-04-25T06:49:53;7.20;99.90
45807;DHT22;31507;51.494;7.518;2023-04-25T06:52:19;7.10;99.90
45807;DHT22;31507;51.494;7.518;2023-04-25T06:54:44;7.40;99.90
45807;DHT22;31507;51.494;7.518;2023-04-25T06:57:10;7.20;99.90
45807;DHT22;31507;51.494;7.518;2023-04-25T06:59:36;7.30;99.90
45807;DHT22;31507;51.494;7.518;2023-04-25T07:02:01;7.40;99.90
45807;DHT22;31507;51.494;7.518;2023-04-25T07:04:27;7.50;99.90
45807;DHT22;31507;51.494;7.518;2023-04-25T07:06:53;7.60;99.90
45807;DHT22;31507;51.494;7.518;2023-04-25T07:09:18;7.60;99.90
45807;DHT22;31507;51.494;7.518;2023-04-25T07:11:44;7.60;99.90
45807;DHT22;31507;51.494;7.518;2023-04-25T07:14:10;7.50;99.90
45807;DHT22;31507;51.494;7.518;2023-04-25T07:16:36;7.90;99.90
45807;DHT22;31507;51.494;7.518;2023-04-25T07:19:01;8.10;99.90
45807;DHT22;31507;51.494;7.518;2023-04-25T07:21:27;8.30;99.90
45807;DHT22;31507;51.494;7.518;2023-04-25T07:23:52;8.40;99.90
45807;DHT22;31507;51.494;7.518;2023-04-25T07:26:18;8.50;99.90
45807;DHT22;31507;51.494;7.518;2023-04-25T07:28:44;8.60;99.90
45807;DHT22;31507;51.494;7.518;2023-04-25T07:31:09;8.50;99.90
45807;DHT22;31507;51.494;7.518;2023-04-25T07:33:35;8.50;99.90
45807;DHT22;31507;51.494;7.518;2023-04-25T07:36:01;8.20;99.90
45807;DHT22;31507;51.494;7.518;2023-04-25T07:38:26;7.70;99.90
45807;DHT22;31507;51.494;7.518;2023-04-25T07:40:53;7.50;99.90
45807;DHT22;31507;51.494;7.518;2023-04-25T07:43:18;7.40;99.90
45807;DHT22;31507;51.494;7.518;2023-04-25T07:45:44;7.40;99.90
45807;DHT22;31507;51.494;7.518;2023-04-25T07:48:10;7.40;99.90
45807;DHT22;31507;51.494;7.518;2023-04-25T07:50:36;7.30;99.90
45807;DHT22;31507;51.494;7.518;2023-04-25T07:53:02;7.40;99.90
45807;DHT22;31507;51.494;7.518;2023-04-25T07:55:27;7.40;99.90
45807;DHT22;31507;51.494;7.518;2023-04-25T07:57:53;7.50;99.90
45807;DHT22;31507;51.494;7.518;2023-04-25T08:00:19;7.50;99.90
45807;DHT22;31507;51.494;7.518;2023-04-25T08:02:45;7.90;99.90
45807;DHT22;31507;51.494;7.518;2023-04-25T08:05:11;8.00;99.90
45807;DHT22;31507;51.494;7.518;2023-04-25T08:07:40;8.00;99.90
45807;DHT22;31507;51.494;7.518;2023-04-25T08:10:07;8.00;99.90
45807;DHT22;31507;51.494;7.518;2023-04-25T08:12:33;8.00;99.90
45807;DHT22;31507;51.494;7.518;2023-04-25T08:14:58;7.90;99.90
45807;DHT22;31507;51.494;7.518;2023-04-25T08:17:24;7.90;99.90
45807;DHT22;31507;51.494;7.518;2023-04-25T08:19:50;7.80;99.90
45807;DHT22;31507;51.494;7.518;2023-04-25T08:22:15;7.80;99.90
45807;DHT22;31507;51.494;7.518;2023-04-25T08:24:41;7.90;99.90
45807;DHT22;31507;51.494;7.518;2023-04-25T08:27:07;8.00;99.90
45807;DHT22;31507;51.494;7.518;2023-04-25T08:29:33;8.20;99.90
45807;DHT22;31507;51.494;7.518;2023-04-25T08:31:59;8.50;99.90
45807;DHT22;31507;51.494;7.518;2023-04-25T08:34:25;8.70;99.90
45807;DHT22;31507;51.494;7.518;2023-04-25T08:36:51;8.60;99.90
45807;DHT22;31507;51.494;7.518;2023-04-25T08:39:17;8.60;99.90
45807;DHT22;31507;51.494;7.518;2023-04-25T08:41:43;8.60;99.90
45807;DHT22;31507;51.494;7.518;2023-04-25T08:44:10;8.80;99.90
45807;DHT22;31507;51.494;7.518;2023-04-25T08:46:38;8.90;99.90
45807;DHT22;31507;51.494;7.518;2023-04-25T08:49:04;9.00;99.90
45807;DHT22;31507;51.494;7.518;2023-04-25T08:51:32;9.30;99.90
45807;DHT22;31507;51.494;7.518;2023-04-25T08:54:08;9.50;95.70
45807;DHT22;31507;51.494;7.518;2023-04-25T08:56:34;9.60;97.40
45807;DHT22;31507;51.494;7.518;2023-04-25T08:59:01;9.90;95.20
45807;DHT22;31507;51.494;7.518;2023-04-25T09:01:27;9.90;99.00
45807;DHT22;31507;51.494;7.518;2023-04-25T09:03:53;9.80;97.20
45807;DHT22;31507;51.494;7.518;2023-04-25T09:06:19;9.80;98.60
45807;DHT22;31507;51.494;7.518;2023-04-25T09:08:45;9.90;97.70
45807;DHT22;31507;51.494;7.518;2023-04-25T09:11:12;10.10;98.80
45807;DHT22;31507;51.494;7.518;2023-04-25T09:13:38;9.60;94.60
45807;DHT22;31507;51.494;7.518;2023-04-25T09:16:04;9.40;95.20
45807;DHT22;31507;51.494;7.518;2023-04-25T09:18:34;9.30;95.30
45807;DHT22;31507;51.494;7.518;2023-04-25T09:23:43;9.10;95.80
45807;DHT22;31507;51.494;7.518;2023-04-25T09:26:09;9.20;98.30
45807;DHT22;31507;51.494;7.518;2023-04-25T09:28:35;9.40;97.10
45807;DHT22;31507;51.494;7.518;2023-04-25T09:31:01;9.30;96.80
45807;DHT22;31507;51.494;7.518;2023-04-25T09:33:32;9.20;96.60
45807;DHT22;31507;51.494;7.518;2023-04-25T09:36:06;9.10;94.20
45807;DHT22;31507;51.494;7.518;2023-04-25T09:38:43;8.90;93.70
45807;DHT22;31507;51.494;7.518;2023-04-25T09:41:09;8.90;94.40
45807;DHT22;31507;51.494;7.518;2023-04-25T09:43:36;9.10;96.10
45807;DHT22;31507;51.494;7.518;2023-04-25T09:46:02;9.10;95.00
45807;DHT22;31507;51.494;7.518;2023-04-25T09:48:28;9.00;95.30
45807;DHT22;31507;51.494;7.518;2023-04-25T09:51:07;8.70;95.40
45807;DHT22;31507;51.494;7.518;2023-04-25T09:53:35;8.50;96.70
45807;DHT22;31507;51.494;7.518;2023-04-25T09:56:04;8.40;96.00
45807;DHT22;31507;51.494;7.518;2023-04-25T09:58:31;8.20;98.00
45807;DHT22;31507;51.494;7.518;2023-04-25T10:01:02;8.10;98.40
45807;DHT22;31507;51.494;7.518;2023-04-25T10:03:32;8.00;99.60
45807;DHT22;31507;51.494;7.518;2023-04-25T10:06:04;8.00;99.00
45807;DHT22;31507;51.494;7.518;2023-04-25T10:08:34;8.00;97.50
45807;DHT22;31507;51.494;7.518;2023-04-25T10:11:04;8.00;99.80
45807;DHT22;31507;51.494;7.518;2023-04-25T10:13:31;8.20;99.70
45807;DHT22;31507;51.494;7.518;2023-04-25T10:16:04;8.60;98.20
45807;DHT22;31507;51.494;7.518;2023-04-25T10:18:31;9.20;97.10
45807;DHT22;31507;51.494;7.518;2023-04-25T10:20:59;10.10;95.20
45807;DHT22;31507;51.494;7.518;2023-04-25T10:23:25;10.80;90.80
45807;DHT22;31507;51.494;7.518;2023-04-25T10:25:52;11.30;88.20
45807;DHT22;31507;51.494;7.518;2023-04-25T10:28:19;11.20;88.50
45807;DHT22;31507;51.494;7.518;2023-04-25T10:33:34;12.30;83.10
45807;DHT22;31507;51.494;7.518;2023-04-25T10:36:18;12.80;77.80
45807;DHT22;31507;51.494;7.518;2023-04-25T10:38:45;12.40;72.40
45807;DHT22;31507;51.494;7.518;2023-04-25T10:41:12;12.10;80.90
45807;DHT22;31507;51.494;7.518;2023-04-25T10:43:44;11.90;76.20
45807;DHT22;31507;51.494;7.518;2023-04-25T10:46:21;11.80;83.00
45807;DHT22;31507;51.494;7.518;2023-04-25T10:48:58;11.50;77.70
45807;DHT22;31507;51.494;7.518;2023-04-25T10:51:33;10.80;73.30
45807;DHT22;31507;51.494;7.518;2023-04-25T10:54:02;10.60;76.50
45807;DHT22;31507;51.494;7.518;2023-04-25T10:56:33;10.40;78.80
45807;DHT22;31507;51.494;7.518;2023-04-25T10:59:15;10.00;75.30
45807;DHT22;31507;51.494;7.518;2023-04-25T11:01:43;9.70;76.40
45807;DHT22;31507;51.494;7.518;2023-04-25T11:04:25;9.60;79.20
45807;DHT22;31507;51.494;7.518;2023-04-25T11:09:29;9.10;76.40
45807;DHT22;31507;51.494;7.518;2023-04-25T11:11:56;8.90;76.60
45807;DHT22;31507;51.494;7.518;2023-04-25T11:14:22;8.80;78.30
45807;DHT22;31507;51.494;7.518;2023-04-25T11:16:58;8.70;79.30
45807;DHT22;31507;51.494;7.518;2023-04-25T11:19:25;8.70;81.90
45807;DHT22;31507;51.494;7.518;2023-04-25T11:21:55;8.70;81.50
45807;DHT22;31507;51.494;7.518;2023-04-25T11:24:29;8.80;82.20
45807;DHT22;31507;51.494;7.518;2023-04-25T11:26:55;8.70;81.60
45807;DHT22;31507;51.494;7.518;2023-04-25T11:29:26;8.80;83.90
45807;DHT22;31507;51.494;7.518;2023-04-25T11:31:53;8.90;82.60
45807;DHT22;31507;51.494;7.518;2023-04-25T11:34:21;9.00;82.10
45807;DHT22;31507;51.494;7.518;2023-04-25T11:36:47;9.10;84.80
45807;DHT22;31507;51.494;7.518;2023-04-25T11:39:13;9.20;82.20
45807;DHT22;31507;51.494;7.518;2023-04-25T11:41:41;9.30;81.80
45807;DHT22;31507;51.494;7.518;2023-04-25T11:44:07;9.30;80.50
45807;DHT22;31507;51.494;7.518;2023-04-25T11:46:36;9.20;82.10
45807;DHT22;31507;51.494;7.518;2023-04-25T11:49:02;9.30;81.80
45807;DHT22;31507;51.494;7.518;2023-04-25T11:51:29;9.10;82.20
45807;DHT22;31507;51.494;7.518;2023-04-25T11:53:56;9.00;82.90
45807;DHT22;31507;51.494;7.518;2023-04-25T11:56:22;9.10;83.50
45807;DHT22;31507;51.494;7.518;2023-04-25T11:59:06;9.20;83.30
45807;DHT22;31507;51.494;7.518;2023-04-25T12:01:34;9.40;83.60
45807;DHT22;31507;51.494;7.518;2023-04-25T12:06:42;10.20;76.30
45807;DHT22;31507;51.494;7.518;2023-04-25T12:09:11;10.00;76.60
45807;DHT22;31507;51.494;7.518;2023-04-25T12:11:43;10.60;78.20
45807;DHT22;31507;51.494;7.518;2023-04-25T12:14:09;10.80;73.00
45807;DHT22;31507;51.494;7.518;2023-04-25T12:16:46;11.00;75.60
45807;DHT22;31507;51.494;7.518;2023-04-25T12:19:15;11.60;75.50
45807;DHT22;31507;51.494;7.518;2023-04-25T12:21:42;12.10;71.40
45807;DHT22;31507;51.494;7.518;2023-04-25T12:24:14;12.30;71.20
45807;DHT22;31507;51.494;7.518;2023-04-25T12:29:24;12.10;69.90
45807;DHT22;31507;51.494;7.518;2023-04-25T12:31:51;12.10;70.00
45807;DHT22;31507;51.494;7.518;2023-04-25T12:34:21;12.40;69.50
45807;DHT22;31507;51.494;7.518;2023-04-25T12:36:47;11.90;66.30
45807;DHT22;31507;51.494;7.518;2023-04-25T12:39:17;11.80;67.30
45807;DHT22;31507;51.494;7.518;2023-04-25T12:41:43;12.10;65.00
45807;DHT22;31507;51.494;7.518;2023-04-25T12:44:09;11.90;65.60
45807;DHT22;31507;51.494;7.518;2023-04-25T12:46:36;11.50;66.40
45807;DHT22;31507;51.494;7.518;2023-04-25T12:49:02;11.30;67.40
45807;DHT22;31507;51.494;7.518;2023-04-25T12:51:29;11.20;67.60
45807;DHT22;31507;51.494;7.518;2023-04-25T12:53:54;11.20;66.80
45807;DHT22;31507;51.494;7.518;2023-04-25T12:56:20;10.90;67.90
45807;DHT22;31507;51.494;7.518;2023-04-25T12:58:46;10.30;67.70
45807;DHT22;31507;51.494;7.518;2023-04-25T13:01:13;10.30;69.80
45807;DHT22;31507;51.494;7.518;2023-04-25T13:03:39;10.30;70.20
45807;DHT22;31507;51.494;7.518;2023-04-25T13:06:06;10.60;70.40
45807;DHT22;31507;51.494;7.518;2023-04-25T13:08:32;10.70;69.60
45807;DHT22;31507;51.494;7.518;2023-04-25T13:10:57;10.80;69.30
45807;DHT22;31507;51.494;7.518;2023-04-25T13:13:23;10.80;69.10
45807;DHT22;31507;51.494;7.518;2023-04-25T13:15:49;10.70;67.00
45807;DHT22;31507;51.494;7.518;2023-04-25T13:18:15;10.60;67.70
45807;DHT22;31507;51.494;7.518;2023-04-25T13:20:40;10.60;67.50
45807;DHT22;31507;51.494;7.518;2023-04-25T13:23:06;10.30;67.60
45807;DHT22;31507;51.494;7.518;2023-04-25T13:25:31;10.10;67.50
45807;DHT22;31507;51.494;7.518;2023-04-25T13:27:57;10.20;68.50
45807;DHT22;31507;51.494;7.518;2023-04-25T13:30:23;10.20;68.30
45807;DHT22;31507;51.494;7.518;2023-04-25T13:32:48;10.30;69.10
45807;DHT22;31507;51.494;7.518;2023-04-25T13:35:14;10.30;68.90
45807;DHT22;31507;51.494;7.518;2023-04-25T13:37:40;10.70;67.50
45807;DHT22;31507;51.494;7.518;2023-04-25T13:40:08;11.20;67.10
45807;DHT22;31507;51.494;7.518;2023-04-25T13:42:38;11.50;65.60
45807;DHT22;31507;51.494;7.518;2023-04-25T13:45:04;11.70;66.10
45807;DHT22;31507;51.494;7.518;2023-04-25T13:47:30;12.10;65.10
45807;DHT22;31507;51.494;7.518;2023-04-25T13:49:56;12.40;65.40
45807;DHT22;31507;51.494;7.518;2023-04-25T13:52:22;12.50;64.40
45807;DHT22;31507;51.494;7.518;2023-04-25T13:54:50;12.10;64.70
45807;DHT22;31507;51.494;7.518;2023-04-25T13:57:16;11.50;66.50
45807;DHT22;31507;51.494;7.518;2023-04-25T13:59:42;11.10;66.50
45807;DHT22;31507;51.494;7.518;2023-04-25T14:02:08;10.60;67.50
45807;DHT22;31507;51.494;7.518;2023-04-25T14:04:34;10.20;70.40
45807;DHT22;31507;51.494;7.518;2023-04-25T14:07:00;9.70;73.30
45807;DHT22;31507;51.494;7.518;2023-04-25T14:09:26;9.20;75.90
45807;DHT22;31507;51.494;7.518;2023-04-25T14:11:52;8.90;78.90
45807;DHT22;31507;51.494;7.518;2023-04-25T14:14:19;8.60;80.10
45807;DHT22;31507;51.494;7.518;2023-04-25T14:16:46;8.40;81.90
45807;DHT22;31507;51.494;7.518;2023-04-25T14:19:14;8.20;83.00
45807;DHT22;31507;51.494;7.518;2023-04-25T14:21:39;8.20;85.40
45807;DHT22;31507;51.494;7.518;2023-04-25T14:24:06;8.60;87.40
45807;DHT22;31507;51.494;7.518;2023-04-25T14:26:33;9.50;87.80
45807;DHT22;31507;51.494;7.518;2023-04-25T14:28:58;10.30;83.80
45807;DHT22;31507;51.494;7.518;2023-04-25T14:31:24;11.00;80.70
45807;DHT22;31507;51.494;7.518;2023-04-25T14:33:50;11.00;79.70
45807;DHT22;31507;51.494;7.518;2023-04-25T14:36:15;11.30;81.40
45807;DHT22;31507;51.494;7.518;2023-04-25T14:38:41;11.20;78.30
45807;DHT22;31507;51.494;7.518;2023-04-25T14:41:07;11.00;78.40
45807;DHT22;31507;51.494;7.518;2023-04-25T14:43:32;10.70;78.00
45807;DHT22;31507;51.494;7.518;2023-04-25T14:45:58;11.10;77.10
45807;DHT22;31507;51.494;7.518;2023-04-25T14:48:24;11.60;76.60
45807;DHT22;31507;51.494;7.518;2023-04-25T14:50:49;12.10;74.00
45807;DHT22;31507;51.494;7.518;2023-04-25T14:53:15;12.50;73.90
45807;DHT22;31507;51.494;7.518;2023-04-25T14:55:40;12.50;72.80
45807;DHT22;31507;51.494;7.518;2023-04-25T14:58:06;12.50;73.20
45807;DHT22;31507;51.494;7.518;2023-04-25T15:00:32;12.50;72.40
45807;DHT22;31507;51.494;7.518;2023-04-25T15:02:58;12.20;71.50
45807;DHT22;31507;51.494;7.518;2023-04-25T15:05:24;11.50;71.30
45807;DHT22;31507;51.494;7.518;2023-04-25T15:07:50;11.20;72.10
45807;DHT22;31507;51.494;7.518;2023-04-25T15:10:17;10.80;72.30
45807;DHT22;31507;51.494;7.518;2023-04-25T15:12:43;10.40;73.10
45807;DHT22;31507;51.494;7.518;2023-04-25T15:15:10;10.30;73.40
45807;DHT22;31507;51.494;7.518;2023-04-25T15:17:40;10.00;75.90
45807;DHT22;31507;51.494;7.518;2023-04-25T15:20:07;9.60;77.30
45807;DHT22;31507;51.494;7.518;2023-04-25T15:22:35;9.40;81.20
45807;DHT22;31507;51.494;7.518;2023-04-25T15:25:01;9.40;82.40
45807;DHT22;31507;51.494;7.518;2023-04-25T15:27:28;9.60;83.40
45807;DHT22;31507;51.494;7.518;2023-04-25T15:29:53;10.10;83.20
45807;DHT22;31507;51.494;7.518;2023-04-25T15:32:19;10.10;81.80
45807;DHT22;31507;51.494;7.518;2023-04-25T15:34:46;10.00;80.20
45807;DHT22;31507;51.494;7.518;2023-04-25T15:37:11;9.80;80.50
45807;DHT22;31507;51.494;7.518;2023-04-25T15:39:37;9.70;81.60
45807;DHT22;31507;51.494;7.518;2023-04-25T15:42:03;9.80;82.60
45807;DHT22;31507;51.494;7.518;2023-04-25T15:44:28;9.80;80.70
45807;DHT22;31507;51.494;7.518;2023-04-25T15:46:54;9.80;82.30
45807;DHT22;31507;51.494;7.518;2023-04-25T15:49:20;9.90;81.60
45807;DHT22;31507;51.494;7.518;2023-04-25T15:51:49;10.10;82.20